createdAt,value
2024-05-09T00:00:39.866Z,8.116
2024-05-09T00:02:27.917Z,8.054
2024-05-09T00:03:28.195Z,8.017
2024-05-09T00:04:28.292Z,7.985
2024-05-09T00:05:28.959Z,7.974
2024-05-09T00:06:28.118Z,7.966
2024-05-09T00:07:27.901Z,7.945
2024-05-09T00:08:28.079Z,7.942
2024-05-09T00:09:28.356Z,7.913
2024-05-09T00:10:41.847Z,7.897
2024-05-09T00:11:28.320Z,7.902
2024-05-09T00:12:28.464Z,7.889
2024-05-09T00:14:28.532Z,7.862
2024-05-09T00:15:27.535Z,7.795
2024-05-09T00:16:28.218Z,7.894
2024-05-09T00:17:28.674Z,7.846
2024-05-09T00:19:28.301Z,7.830
2024-05-09T00:20:42.799Z,7.736
2024-05-09T00:22:27.488Z,7.771
2024-05-09T00:23:28.725Z,7.792
2024-05-09T00:24:27.860Z,7.776
2024-05-09T00:25:27.803Z,7.744
2024-05-09T00:26:27.820Z,7.672
2024-05-09T00:27:27.856Z,7.640
2024-05-09T00:28:29.132Z,7.584
2024-05-09T00:29:28.085Z,7.581
2024-05-09T00:30:40.046Z,7.581
2024-05-09T00:32:29.432Z,7.504
2024-05-09T00:33:28.812Z,7.528
2024-05-09T00:34:29.010Z,7.477
2024-05-09T00:35:28.978Z,7.448
2024-05-09T00:36:28.267Z,7.445
2024-05-09T00:38:27.975Z,7.376
2024-05-09T00:39:28.034Z,7.365
2024-05-09T00:40:43.590Z,7.395
2024-05-09T00:41:28.769Z,7.387
2024-05-09T00:42:27.657Z,7.344
2024-05-09T00:43:27.398Z,7.317
2024-05-09T00:44:28.574Z,7.306
2024-05-09T00:45:27.510Z,7.317
2024-05-09T00:46:28.248Z,7.341
2024-05-09T00:47:28.703Z,7.202
2024-05-09T00:48:31.231Z,7.258
2024-05-09T00:49:27.985Z,7.256
2024-05-09T00:50:41.307Z,7.256
2024-05-09T00:52:27.431Z,7.221
2024-05-09T00:53:28.661Z,7.138
2024-05-09T00:54:27.938Z,7.184
2024-05-09T00:55:28.035Z,7.176
2024-05-09T00:56:28.181Z,7.162
2024-05-09T00:57:28.172Z,7.157
2024-05-09T00:58:27.898Z,7.103
2024-05-09T00:59:28.052Z,7.061
2024-05-09T01:00:42.815Z,7.074
2024-05-09T01:02:28.056Z,6.991
2024-05-09T01:03:30.450Z,6.943
2024-05-09T01:04:28.349Z,6.943
2024-05-09T01:05:28.434Z,6.943
2024-05-09T01:06:28.011Z,6.893
2024-05-09T01:07:27.746Z,6.930
2024-05-09T01:08:27.735Z,6.911
2024-05-09T01:09:28.017Z,6.941
2024-05-09T01:10:40.313Z,6.887
2024-05-09T01:11:27.710Z,6.855
2024-05-09T01:12:28.107Z,6.820
2024-05-09T01:13:28.307Z,6.850
2024-05-09T01:14:28.510Z,6.863
2024-05-09T01:15:27.458Z,6.887
2024-05-09T01:16:28.317Z,6.858
2024-05-09T01:17:29.197Z,6.858
2024-05-09T01:18:28.259Z,6.874
2024-05-09T01:19:29.488Z,6.794
2024-05-09T01:20:42.223Z,6.743
2024-05-09T01:22:28.198Z,6.746
2024-05-09T01:23:28.237Z,6.762
2024-05-09T01:24:27.520Z,6.708
2024-05-09T01:25:28.228Z,6.714
2024-05-09T01:26:28.279Z,6.684
2024-05-09T01:27:28.289Z,6.663
2024-05-09T01:28:28.039Z,6.650
2024-05-09T01:29:28.593Z,6.658
2024-05-09T01:30:40.401Z,6.652
2024-05-09T01:31:28.157Z,6.620
2024-05-09T01:32:28.735Z,6.623
2024-05-09T01:33:29.183Z,6.567
2024-05-09T01:34:27.933Z,6.596
2024-05-09T01:35:27.997Z,6.572
2024-05-09T01:36:28.115Z,6.548
2024-05-09T01:37:28.022Z,6.559
2024-05-09T01:38:28.078Z,6.559
2024-05-09T01:39:28.432Z,6.537
2024-05-09T01:40:40.047Z,6.524
2024-05-09T01:42:27.732Z,6.511
2024-05-09T01:43:27.422Z,6.559
2024-05-09T01:44:28.647Z,6.521
2024-05-09T01:45:27.585Z,6.516
2024-05-09T01:46:28.356Z,6.503
2024-05-09T01:47:29.122Z,6.513
2024-05-09T01:48:27.942Z,6.505
2024-05-09T01:49:29.493Z,6.524
2024-05-09T01:50:40.914Z,6.513
2024-05-09T01:52:28.232Z,6.388
2024-05-09T01:53:28.280Z,6.455
2024-05-09T01:54:27.614Z,6.500
2024-05-09T01:55:28.311Z,6.460
2024-05-09T01:56:28.354Z,6.398
2024-05-09T01:57:28.418Z,6.409
2024-05-09T01:58:28.203Z,6.425
2024-05-09T01:59:28.723Z,6.425
2024-05-09T02:00:41.181Z,6.417
2024-05-09T02:02:28.779Z,6.404
2024-05-09T02:03:28.674Z,6.393
2024-05-09T02:04:29.237Z,6.334
2024-05-09T02:05:28.797Z,6.356
2024-05-09T02:07:27.860Z,6.284
2024-05-09T02:08:28.607Z,6.334
2024-05-09T02:09:27.706Z,6.289
2024-05-09T02:10:37.351Z,6.252
2024-05-09T02:11:28.264Z,6.310
2024-05-09T02:12:28.528Z,6.254
2024-05-09T02:13:27.668Z,6.220
2024-05-09T02:14:28.863Z,6.201
2024-05-09T02:15:27.953Z,6.193
2024-05-09T02:16:27.677Z,6.174
2024-05-09T02:17:28.453Z,6.180
2024-05-09T02:18:28.620Z,6.169
2024-05-09T02:19:28.222Z,6.180
2024-05-09T02:20:39.888Z,6.145
2024-05-09T02:21:28.176Z,6.115
2024-05-09T02:22:27.818Z,6.078
2024-05-09T02:23:27.783Z,6.137
2024-05-09T02:25:28.473Z,6.131
2024-05-09T02:26:27.761Z,6.091
2024-05-09T02:27:27.687Z,6.054
2024-05-09T02:28:28.415Z,6.030
2024-05-09T02:29:28.672Z,6.001
2024-05-09T02:30:41.603Z,6.033
2024-05-09T02:31:28.259Z,6.001
2024-05-09T02:32:28.520Z,6.014
2024-05-09T02:33:29.416Z,5.942
2024-05-09T02:34:28.555Z,5.950
2024-05-09T02:35:27.794Z,5.894
2024-05-09T02:36:28.121Z,5.923
2024-05-09T02:37:27.778Z,5.811
2024-05-09T02:38:27.689Z,5.854
2024-05-09T02:39:27.891Z,5.912
2024-05-09T02:40:41.878Z,5.969
2024-05-09T02:41:27.831Z,5.971
2024-05-09T02:42:27.517Z,5.971
2024-05-09T02:43:28.233Z,5.977
2024-05-09T02:44:28.468Z,5.955
2024-05-09T02:45:27.431Z,5.945
2024-05-09T02:46:28.282Z,5.969
2024-05-09T02:47:28.895Z,5.979
2024-05-09T02:48:29.052Z,5.966
2024-05-09T02:49:28.751Z,6.033
2024-05-09T02:50:42.635Z,5.995
2024-05-09T02:52:28.273Z,5.950
2024-05-09T02:53:28.409Z,5.921
2024-05-09T02:54:27.742Z,5.950
2024-05-09T02:55:27.428Z,5.915
2024-05-09T02:56:28.664Z,5.896
2024-05-09T02:57:27.614Z,5.902
2024-05-09T02:58:28.468Z,5.934
2024-05-09T02:59:28.479Z,5.939
2024-05-09T03:00:43.134Z,5.888
2024-05-09T03:01:28.482Z,5.902
2024-05-09T03:02:28.625Z,5.950
2024-05-09T03:03:29.295Z,5.945
2024-05-09T03:04:28.043Z,5.929
2024-05-09T03:06:28.144Z,5.926
2024-05-09T03:07:27.879Z,5.904
2024-05-09T03:08:27.843Z,5.880
2024-05-09T03:09:28.034Z,5.872
2024-05-09T03:10:39.031Z,5.883
2024-05-09T03:12:27.977Z,5.854
2024-05-09T03:13:28.371Z,5.894
2024-05-09T03:14:28.635Z,5.838
2024-05-09T03:15:27.542Z,5.792
2024-05-09T03:16:28.330Z,5.790
2024-05-09T03:17:28.614Z,5.747
2024-05-09T03:18:28.927Z,5.774
2024-05-09T03:19:28.545Z,5.763
2024-05-09T03:20:39.924Z,5.776
2024-05-09T03:21:27.927Z,5.758
2024-05-09T03:22:27.558Z,5.715
2024-05-09T03:23:28.755Z,5.694
2024-05-09T03:24:27.674Z,5.704
2024-05-09T03:25:27.308Z,5.672
2024-05-09T03:26:28.038Z,5.680
2024-05-09T03:27:28.126Z,5.664
2024-05-09T03:28:27.754Z,5.667
2024-05-09T03:29:27.851Z,5.595
2024-05-09T03:30:43.399Z,5.616
2024-05-09T03:31:28.210Z,5.573
2024-05-09T03:32:28.587Z,5.571
2024-05-09T03:33:30.919Z,5.536
2024-05-09T03:35:29.030Z,5.488
2024-05-09T03:36:28.028Z,5.539
2024-05-09T03:37:27.752Z,5.592
2024-05-09T03:38:27.701Z,5.571
2024-05-09T03:39:27.667Z,5.496
2024-05-09T03:40:36.359Z,5.493
2024-05-09T03:41:28.332Z,5.533
2024-05-09T03:42:28.370Z,5.523
2024-05-09T03:43:28.025Z,5.549
2024-05-09T03:44:28.161Z,5.517
2024-05-09T03:45:28.250Z,5.464
2024-05-09T03:46:27.935Z,5.451
2024-05-09T03:47:28.370Z,5.509
2024-05-09T03:48:28.987Z,5.491
2024-05-09T03:49:29.073Z,5.429
2024-05-09T03:50:39.764Z,5.451
2024-05-09T03:52:27.411Z,5.507
2024-05-09T03:53:28.408Z,5.456
2024-05-09T03:54:27.489Z,5.469
2024-05-09T03:55:28.379Z,5.413
2024-05-09T03:56:28.689Z,5.448
2024-05-09T03:57:27.573Z,5.475
2024-05-09T03:58:28.281Z,5.453
2024-05-09T03:59:28.129Z,5.469
2024-05-09T04:00:42.717Z,5.467
2024-05-09T04:02:28.178Z,5.405
2024-05-09T04:03:28.541Z,5.421
2024-05-09T04:05:28.462Z,5.426
2024-05-09T04:06:27.830Z,5.440
2024-05-09T04:07:27.505Z,5.451
2024-05-09T04:08:28.556Z,5.448
2024-05-09T04:09:27.552Z,5.397
2024-05-09T04:10:38.508Z,5.445
2024-05-09T04:12:27.849Z,5.389
2024-05-09T04:14:27.847Z,5.421
2024-05-09T04:15:27.843Z,5.418
2024-05-09T04:16:27.567Z,5.400
2024-05-09T04:17:28.980Z,5.448
2024-05-09T04:18:28.020Z,5.410
2024-05-09T04:19:28.962Z,5.469
2024-05-09T04:20:40.357Z,5.488
2024-05-09T04:22:27.737Z,5.475
2024-05-09T04:23:27.584Z,5.565
2024-05-09T04:24:27.687Z,5.544
2024-05-09T04:25:27.607Z,5.576
2024-05-09T04:26:28.876Z,5.557
2024-05-09T04:27:28.168Z,5.584
2024-05-09T04:28:28.049Z,5.592
2024-05-09T04:29:28.016Z,5.627
2024-05-09T04:30:43.266Z,5.611
2024-05-09T04:31:28.076Z,5.653
2024-05-09T04:32:28.374Z,5.672
2024-05-09T04:33:28.725Z,5.723
2024-05-09T04:34:28.848Z,5.731
2024-05-09T04:35:28.567Z,5.792
2024-05-09T04:36:27.487Z,5.779
2024-05-09T04:37:28.146Z,5.747
2024-05-09T04:38:28.106Z,5.736
2024-05-09T04:39:28.190Z,5.827
2024-05-09T04:40:40.237Z,5.808
2024-05-09T04:41:28.257Z,5.945
2024-05-09T04:42:27.936Z,6.014
2024-05-09T04:43:27.622Z,6.046
2024-05-09T04:44:28.789Z,6.041
2024-05-09T04:45:27.628Z,5.993
2024-05-09T04:46:27.443Z,6.145
2024-05-09T04:47:28.970Z,6.305
2024-05-09T04:48:29.179Z,6.431
2024-05-09T04:49:29.243Z,6.449
2024-05-09T04:50:42.292Z,6.321
2024-05-09T04:52:28.153Z,6.228
2024-05-09T04:53:28.044Z,6.145
2024-05-09T04:54:39.417Z,6.180
2024-05-09T04:55:28.110Z,6.220
2024-05-09T04:56:28.217Z,6.228
2024-05-09T04:57:27.996Z,6.302
2024-05-09T04:59:27.917Z,6.388
2024-05-09T05:00:41.711Z,6.535
2024-05-09T05:02:28.324Z,6.746
2024-05-09T05:03:28.320Z,6.783
2024-05-09T05:05:28.161Z,6.836
2024-05-09T05:06:28.130Z,7.101
2024-05-09T05:07:27.831Z,7.346
2024-05-09T05:08:28.779Z,7.595
2024-05-09T05:09:28.059Z,7.549
2024-05-09T05:10:39.555Z,7.437
2024-05-09T05:11:28.670Z,7.368
2024-05-09T05:12:28.037Z,7.322
2024-05-09T05:13:30.941Z,7.181
2024-05-09T05:14:28.173Z,7.232
2024-05-09T05:16:27.765Z,7.280
2024-05-09T05:17:28.106Z,7.387
2024-05-09T05:18:29.061Z,7.392
2024-05-09T05:20:38.296Z,7.630
2024-05-09T05:21:28.337Z,7.696
2024-05-09T05:22:27.998Z,7.744
2024-05-09T05:23:28.298Z,7.974
2024-05-09T05:24:28.338Z,8.113
2024-05-09T05:25:27.967Z,8.113
2024-05-09T05:26:27.834Z,8.025
2024-05-09T05:27:27.813Z,8.132
2024-05-09T05:28:27.543Z,8.417
2024-05-09T05:29:30.003Z,8.217
2024-05-09T05:30:37.806Z,8.329
2024-05-09T05:32:28.501Z,8.449
2024-05-09T05:33:29.738Z,8.772
2024-05-09T05:34:28.061Z,8.626
2024-05-09T05:35:28.037Z,8.698
2024-05-09T05:37:27.392Z,8.909
2024-05-09T05:38:34.146Z,8.903
2024-05-09T05:39:28.092Z,8.946
2024-05-09T05:40:41.351Z,8.959
2024-05-09T05:41:28.397Z,9.213
2024-05-09T05:42:28.083Z,9.101
2024-05-09T05:43:27.801Z,8.898
2024-05-09T05:44:27.754Z,8.893
2024-05-09T05:45:27.882Z,9.272
2024-05-09T05:46:27.565Z,9.376
2024-05-09T05:47:29.125Z,9.242
2024-05-09T05:48:29.349Z,9.453
2024-05-09T05:49:27.987Z,9.606
2024-05-09T05:50:41.086Z,9.718
2024-05-09T05:51:28.042Z,9.755
2024-05-09T05:52:27.662Z,9.630
2024-05-09T05:53:27.591Z,9.734
2024-05-09T05:54:27.948Z,9.747
2024-05-09T05:55:27.655Z,9.659
2024-05-09T05:56:27.694Z,9.747
2024-05-09T05:57:27.822Z,9.784
2024-05-09T05:58:27.569Z,9.875
2024-05-09T05:59:28.508Z,9.987
2024-05-09T06:00:39.479Z,10.156
2024-05-09T06:02:28.556Z,10.003
2024-05-09T06:03:27.758Z,9.950
2024-05-09T06:04:28.310Z,10.121
2024-05-09T06:05:30.983Z,10.073
2024-05-09T06:07:27.725Z,10.145
2024-05-09T06:08:33.319Z,10.340
2024-05-09T06:10:42.902Z,10.268
2024-05-09T06:11:28.354Z,10.129
2024-05-09T06:12:28.609Z,9.982
2024-05-09T06:14:28.461Z,9.939
2024-05-09T06:15:27.470Z,9.835
2024-05-09T06:16:27.543Z,9.817
2024-05-09T06:17:29.275Z,10.206
2024-05-09T06:18:28.226Z,10.158
2024-05-09T06:19:29.139Z,10.084
2024-05-09T06:20:38.450Z,10.038
2024-05-09T06:22:28.032Z,10.254
2024-05-09T06:23:28.018Z,10.441
2024-05-09T06:24:28.256Z,10.489
2024-05-09T06:25:27.877Z,10.548
2024-05-09T06:26:27.759Z,10.546
2024-05-09T06:28:28.361Z,10.570
2024-05-09T06:29:28.502Z,10.829
2024-05-09T06:30:43.356Z,10.973
2024-05-09T06:31:28.179Z,10.642
2024-05-09T06:32:28.689Z,10.505
2024-05-09T06:33:29.596Z,10.695
2024-05-09T06:34:28.055Z,10.415
2024-05-09T06:35:28.578Z,10.620
2024-05-09T06:36:27.439Z,10.756
2024-05-09T06:37:28.226Z,10.922
2024-05-09T06:38:28.130Z,11.023
2024-05-09T06:39:28.265Z,11.072
2024-05-09T06:40:39.903Z,11.315
2024-05-09T06:42:28.270Z,11.397
2024-05-09T06:43:27.955Z,11.606
2024-05-09T06:44:27.897Z,11.643
2024-05-09T06:45:27.935Z,11.275
2024-05-09T06:46:27.587Z,11.769
2024-05-09T06:47:29.066Z,11.635
2024-05-09T06:48:30.131Z,12.455
2024-05-09T06:49:27.982Z,12.564
2024-05-09T06:50:42.099Z,12.847
2024-05-09T06:51:28.250Z,12.992
2024-05-09T06:52:27.876Z,12.722
2024-05-09T06:53:27.800Z,12.345
2024-05-09T06:54:27.927Z,12.535
2024-05-09T06:55:27.627Z,12.516
2024-05-09T06:56:28.626Z,13.010
2024-05-09T06:57:27.670Z,13.128
2024-05-09T06:58:28.364Z,12.941
2024-05-09T06:59:28.504Z,12.941
2024-05-09T07:00:42.680Z,12.853
2024-05-09T07:02:28.177Z,13.090
2024-05-09T07:03:29.544Z,12.850
2024-05-09T07:04:28.139Z,12.807
2024-05-09T07:05:28.984Z,13.053
2024-05-09T07:06:27.963Z,13.146
2024-05-09T07:07:27.785Z,13.301
2024-05-09T07:08:28.247Z,13.411
2024-05-09T07:09:28.301Z,13.515
2024-05-09T07:10:39.467Z,13.275
2024-05-09T07:11:28.020Z,13.227
2024-05-09T07:12:28.322Z,13.267
2024-05-09T07:13:27.565Z,13.232
2024-05-09T07:14:28.562Z,13.448
2024-05-09T07:15:28.082Z,13.579
2024-05-09T07:16:27.736Z,13.379
2024-05-09T07:17:28.070Z,13.336
2024-05-09T07:18:30.239Z,13.608
2024-05-09T07:19:28.217Z,13.667
2024-05-09T07:20:38.433Z,13.782
2024-05-09T07:22:28.171Z,14.084
2024-05-09T07:23:28.275Z,13.827
2024-05-09T07:24:27.461Z,13.854
2024-05-09T07:25:28.231Z,14.030
2024-05-09T07:26:28.838Z,14.225
2024-05-09T07:27:30.832Z,14.102
2024-05-09T07:28:31.029Z,14.455
2024-05-09T07:29:31.166Z,14.359
2024-05-09T07:30:41.131Z,14.479
2024-05-09T07:31:30.869Z,14.506
2024-05-09T07:32:31.620Z,14.434
2024-05-09T07:33:34.168Z,14.695
2024-05-09T07:34:32.076Z,15.016
2024-05-09T07:35:31.131Z,15.307
2024-05-09T07:36:30.930Z,15.467
2024-05-09T07:37:30.577Z,15.128
2024-05-09T07:38:31.641Z,14.850
2024-05-09T07:39:30.907Z,14.925
2024-05-09T07:40:42.675Z,15.056
2024-05-09T07:41:31.082Z,15.157
2024-05-09T07:42:28.236Z,15.074
2024-05-09T07:43:27.935Z,14.564
2024-05-09T07:44:27.961Z,14.620
2024-05-09T07:45:50.343Z,14.754
2024-05-09T07:47:47.752Z,14.802
2024-05-09T07:48:57.823Z,14.847
2024-05-09T07:52:32.387Z,15.277
2024-05-09T07:53:14.313Z,15.291
2024-05-09T07:53:43.203Z,15.456
2024-05-09T07:55:28.901Z,15.667
2024-05-09T07:56:34.549Z,15.835
2024-05-09T07:57:28.234Z,15.739
2024-05-09T07:58:28.189Z,16.193
2024-05-09T07:59:27.843Z,15.707
2024-05-09T08:00:34.900Z,15.718
2024-05-09T08:02:28.378Z,15.699
2024-05-09T08:03:29.537Z,15.894
2024-05-09T08:04:31.713Z,16.046
2024-05-09T08:06:27.858Z,16.185
2024-05-09T08:07:28.018Z,16.311
2024-05-09T08:08:27.862Z,16.452
2024-05-09T08:09:30.592Z,16.498
2024-05-09T08:10:34.689Z,16.249
2024-05-09T08:12:28.179Z,16.204
2024-05-09T08:13:28.328Z,16.289
2024-05-09T08:14:27.968Z,16.786
2024-05-09T08:15:27.766Z,16.981
2024-05-09T08:16:29.024Z,16.717
2024-05-09T08:17:28.444Z,16.717
2024-05-09T08:18:28.136Z,16.952
2024-05-09T08:19:28.212Z,17.096
2024-05-09T08:20:38.335Z,17.160
2024-05-09T08:21:28.082Z,17.387
2024-05-09T08:22:27.929Z,17.675
2024-05-09T08:23:27.597Z,17.822
2024-05-09T08:24:28.326Z,17.878
2024-05-09T08:25:28.477Z,17.526
2024-05-09T08:26:28.125Z,17.355
2024-05-09T08:27:27.811Z,17.277
2024-05-09T08:28:28.110Z,17.542
2024-05-09T08:29:27.836Z,17.464
2024-05-09T08:30:40.857Z,17.504
2024-05-09T08:31:28.606Z,17.358
2024-05-09T08:32:27.983Z,17.886
2024-05-09T08:33:28.640Z,17.790
2024-05-09T08:34:28.778Z,18.516
2024-05-09T08:35:27.869Z,17.964
2024-05-09T08:36:28.164Z,18.153
2024-05-09T08:37:40.063Z,18.394
2024-05-09T08:39:28.227Z,18.634
2024-05-09T08:40:38.419Z,18.976
2024-05-09T08:42:28.223Z,18.829
2024-05-09T08:43:28.765Z,18.693
2024-05-09T08:44:27.618Z,18.621
2024-05-09T08:45:28.653Z,19.502
2024-05-09T08:46:28.478Z,19.742
2024-05-09T08:47:27.796Z,19.675
2024-05-09T08:48:30.155Z,19.267
2024-05-09T08:49:28.244Z,18.703
2024-05-09T08:50:42.355Z,18.428
2024-05-09T08:51:28.264Z,18.276
2024-05-09T08:52:28.004Z,18.452
2024-05-09T08:53:27.762Z,18.532
2024-05-09T08:54:27.774Z,19.018
2024-05-09T08:55:28.115Z,19.085
2024-05-09T08:56:28.240Z,18.730
2024-05-09T08:57:27.959Z,18.842
2024-05-09T08:58:28.352Z,19.056
2024-05-09T08:59:28.053Z,18.810
2024-05-09T09:00:40.586Z,17.881
2024-05-09T09:01:28.435Z,17.617
2024-05-09T09:02:29.503Z,17.707
2024-05-09T09:03:28.221Z,17.972
2024-05-09T09:04:28.675Z,18.113
2024-05-09T09:05:28.542Z,18.156
2024-05-09T09:06:27.909Z,18.551
2024-05-09T09:07:28.483Z,17.998
2024-05-09T09:08:28.408Z,18.530
2024-05-09T09:09:28.154Z,19.328
2024-05-09T09:10:38.429Z,19.892
2024-05-09T09:12:27.605Z,19.334
2024-05-09T09:13:27.792Z,19.419
2024-05-09T09:14:27.519Z,18.826
2024-05-09T09:15:28.367Z,18.786
2024-05-09T09:16:28.926Z,19.328
2024-05-09T09:17:28.133Z,19.702
2024-05-09T09:18:29.084Z,19.793
2024-05-09T09:19:28.533Z,19.510
2024-05-09T09:20:39.846Z,19.905
2024-05-09T09:21:27.901Z,20.036
2024-05-09T09:22:27.775Z,19.849
2024-05-09T09:23:27.601Z,20.450
2024-05-09T09:24:28.059Z,20.602
2024-05-09T09:25:27.861Z,20.415
2024-05-09T09:26:27.886Z,20.522
2024-05-09T09:27:27.627Z,20.033
2024-05-09T09:28:27.750Z,20.121
2024-05-09T09:29:27.503Z,20.257
2024-05-09T09:30:40.935Z,20.565
2024-05-09T09:32:28.227Z,20.973
2024-05-09T09:33:28.786Z,21.523
2024-05-09T09:34:28.594Z,21.438
2024-05-09T09:35:28.217Z,21.574
2024-05-09T09:37:27.876Z,21.470
2024-05-09T09:38:27.567Z,20.984
2024-05-09T09:39:28.395Z,21.203
2024-05-09T09:40:40.648Z,20.679
2024-05-09T09:42:27.671Z,20.223
2024-05-09T09:43:28.640Z,20.316
2024-05-09T09:44:27.357Z,21.456
2024-05-09T09:45:28.053Z,21.996
2024-05-09T09:46:28.208Z,21.916
2024-05-09T09:47:28.781Z,21.213
2024-05-09T09:48:28.873Z,21.120
2024-05-09T09:49:28.242Z,20.717
2024-05-09T09:50:38.216Z,21.003
2024-05-09T09:52:28.266Z,21.251
2024-05-09T09:53:27.992Z,20.754
2024-05-09T09:55:28.201Z,21.398
2024-05-09T09:56:27.871Z,21.828
2024-05-09T09:58:28.569Z,22.485
2024-05-09T09:59:27.544Z,21.657
2024-05-09T10:00:38.599Z,20.119
2024-05-09T10:01:28.648Z,19.256
2024-05-09T10:02:29.484Z,18.978
2024-05-09T10:03:28.371Z,19.697
2024-05-09T10:04:28.929Z,19.940
2024-05-09T10:05:30.016Z,20.287
2024-05-09T10:06:27.957Z,20.137
2024-05-09T10:07:28.121Z,20.514
2024-05-09T10:08:27.895Z,20.260
2024-05-09T10:09:27.684Z,19.990
2024-05-09T10:10:37.837Z,20.506
2024-05-09T10:11:28.188Z,20.818
2024-05-09T10:12:28.333Z,21.123
2024-05-09T10:13:27.713Z,22.164
2024-05-09T10:14:27.692Z,22.629
2024-05-09T10:15:28.555Z,22.322
2024-05-09T10:16:28.289Z,23.200
2024-05-09T10:17:28.568Z,22.362
2024-05-09T10:18:34.130Z,22.362
2024-05-09T10:20:37.806Z,23.243
2024-05-09T10:21:27.894Z,22.973
2024-05-09T10:22:27.838Z,22.338
2024-05-09T10:23:27.656Z,21.726
2024-05-09T10:24:28.455Z,21.686
2024-05-09T10:25:28.085Z,21.430
2024-05-09T10:26:28.033Z,22.477
2024-05-09T10:27:27.805Z,23.633
2024-05-09T10:28:27.660Z,24.137
2024-05-09T10:29:27.433Z,23.991
2024-05-09T10:30:39.971Z,23.320
2024-05-09T10:32:28.481Z,23.515
2024-05-09T10:33:28.032Z,22.367
2024-05-09T10:34:29.090Z,22.773
2024-05-09T10:35:28.173Z,23.117
2024-05-09T10:37:28.347Z,22.741
2024-05-09T10:39:28.167Z,23.846
2024-05-09T10:40:37.101Z,24.658
2024-05-09T10:41:28.276Z,25.483
2024-05-09T10:42:28.001Z,25.734
2024-05-09T10:43:28.185Z,26.597
2024-05-09T10:44:28.029Z,26.642
2024-05-09T10:46:28.324Z,26.268
2024-05-09T10:47:28.763Z,23.852
2024-05-09T10:48:28.299Z,24.688
2024-05-09T10:49:29.013Z,24.450
2024-05-09T10:50:37.187Z,24.543
2024-05-09T10:52:28.083Z,24.535
2024-05-09T10:53:27.900Z,24.338
2024-05-09T10:55:28.130Z,21.772
2024-05-09T10:57:27.758Z,23.008
2024-05-09T10:58:27.983Z,24.242
2024-05-09T10:59:27.765Z,23.670
2024-05-09T11:00:39.407Z,22.287
2024-05-09T11:01:27.818Z,23.005
2024-05-09T11:02:28.670Z,23.465
2024-05-09T11:03:28.827Z,23.051
2024-05-09T11:04:28.178Z,22.930
2024-05-09T11:05:29.088Z,23.865
2024-05-09T11:06:28.220Z,24.960
2024-05-09T11:07:28.656Z,24.028
2024-05-09T11:08:27.534Z,23.481
2024-05-09T11:09:28.338Z,22.965
2024-05-09T11:10:37.360Z,23.021
2024-05-09T11:12:30.330Z,23.627
2024-05-09T11:13:28.254Z,23.211
2024-05-09T11:14:28.374Z,22.164
2024-05-09T11:15:28.233Z,22.247
2024-05-09T11:16:28.958Z,22.228
2024-05-09T11:17:28.239Z,22.362
2024-05-09T11:18:39.711Z,22.655
2024-05-09T11:19:28.530Z,22.105
2024-05-09T11:20:38.213Z,21.400
2024-05-09T11:21:27.520Z,21.606
2024-05-09T11:22:28.605Z,22.135
2024-05-09T11:23:28.323Z,22.442
2024-05-09T11:24:28.204Z,22.882
2024-05-09T11:25:28.343Z,23.101
2024-05-09T11:26:28.153Z,22.530
2024-05-09T11:27:27.868Z,22.623
2024-05-09T11:28:28.794Z,23.219
2024-05-09T11:29:27.636Z,23.574
2024-05-09T11:30:37.779Z,23.449
2024-05-09T11:32:28.239Z,22.752
2024-05-09T11:34:28.445Z,22.356
2024-05-09T11:35:27.558Z,22.407
2024-05-09T11:36:27.564Z,22.698
2024-05-09T11:37:28.719Z,22.474
2024-05-09T11:38:28.184Z,23.339
2024-05-09T11:39:27.955Z,23.307
2024-05-09T11:40:37.797Z,23.243
2024-05-09T11:41:28.068Z,23.352
2024-05-09T11:42:27.810Z,23.454
2024-05-09T11:43:28.084Z,23.344
2024-05-09T11:44:28.173Z,23.283
2024-05-09T11:45:28.095Z,23.363
2024-05-09T11:46:28.728Z,22.866
2024-05-09T11:47:27.969Z,22.116
2024-05-09T11:48:29.417Z,22.845
2024-05-09T11:49:32.313Z,22.479
2024-05-09T11:50:38.153Z,22.370
2024-05-09T11:52:27.921Z,23.312
2024-05-09T11:53:27.654Z,22.821
2024-05-09T11:54:27.412Z,23.211
2024-05-09T11:55:33.569Z,23.865
2024-05-09T11:57:28.234Z,22.858
2024-05-09T11:58:27.590Z,23.697
2024-05-09T11:59:27.392Z,24.589
2024-05-09T12:00:40.621Z,24.626
2024-05-09T12:01:28.435Z,24.933
2024-05-09T12:02:28.768Z,25.088
2024-05-09T12:03:28.204Z,25.561
2024-05-09T12:04:28.254Z,26.445
2024-05-09T12:05:28.732Z,26.461
2024-05-09T12:06:27.925Z,24.517
2024-05-09T12:07:28.435Z,26.212
2024-05-09T12:08:28.221Z,25.606
2024-05-09T12:10:37.953Z,25.692
2024-05-09T12:12:28.055Z,26.111
2024-05-09T12:13:28.414Z,25.881
2024-05-09T12:14:27.402Z,25.064
2024-05-09T12:15:28.159Z,24.720
2024-05-09T12:16:29.088Z,25.053
2024-05-09T12:17:27.786Z,24.370
2024-05-09T12:18:28.077Z,24.188
2024-05-09T12:19:28.602Z,23.665
2024-05-09T12:20:39.610Z,23.008
2024-05-09T12:22:27.990Z,24.351
2024-05-09T12:23:27.668Z,24.893
2024-05-09T12:24:27.834Z,25.547
2024-05-09T12:25:27.984Z,25.093
2024-05-09T12:26:27.737Z,25.889
2024-05-09T12:27:27.831Z,24.338
2024-05-09T12:28:28.279Z,24.928
2024-05-09T12:29:28.352Z,23.595
2024-05-09T12:30:39.960Z,22.834
2024-05-09T12:32:28.876Z,23.302
2024-05-09T12:33:28.455Z,24.594
2024-05-09T12:35:27.779Z,25.360
2024-05-09T12:36:27.454Z,26.250
2024-05-09T12:37:28.472Z,25.961
2024-05-09T12:38:28.162Z,24.434
2024-05-09T12:39:28.065Z,24.861
2024-05-09T12:40:41.914Z,25.331
2024-05-09T12:41:27.971Z,25.195
2024-05-09T12:42:36.595Z,25.644
2024-05-09T12:43:28.035Z,25.219
2024-05-09T12:44:27.841Z,26.023
2024-05-09T12:45:27.497Z,26.829
2024-05-09T12:46:29.144Z,27.294
2024-05-09T12:47:28.461Z,27.040
2024-05-09T12:48:28.328Z,25.462
2024-05-09T12:49:29.980Z,25.561
2024-05-09T12:50:38.373Z,25.905
2024-05-09T12:52:27.903Z,26.191
2024-05-09T12:53:27.684Z,24.605
2024-05-09T12:54:28.441Z,24.375
2024-05-09T12:55:28.468Z,23.267
2024-05-09T12:56:27.503Z,23.478
2024-05-09T12:57:28.252Z,23.761
2024-05-09T12:58:28.288Z,23.814
2024-05-09T12:59:28.080Z,24.343
2024-05-09T13:00:37.780Z,24.535
2024-05-09T13:01:28.214Z,24.196
2024-05-09T13:02:28.863Z,24.495
2024-05-09T13:03:28.925Z,25.091
2024-05-09T13:04:29.028Z,24.933
2024-05-09T13:05:29.682Z,24.955
2024-05-09T13:06:28.000Z,24.175
2024-05-09T13:07:28.433Z,24.242
2024-05-09T13:08:28.296Z,25.190
2024-05-09T13:09:27.994Z,25.369
2024-05-09T13:10:37.887Z,23.539
2024-05-09T13:11:28.458Z,24.808
2024-05-09T13:12:30.370Z,26.047
2024-05-09T13:13:28.291Z,26.586
2024-05-09T13:14:28.089Z,25.764
2024-05-09T13:15:27.795Z,24.308
2024-05-09T13:16:28.996Z,24.461
2024-05-09T13:17:28.392Z,25.913
2024-05-09T13:18:27.775Z,26.538
2024-05-09T13:19:28.157Z,25.956
2024-05-09T13:20:39.001Z,26.089
2024-05-09T13:22:28.443Z,27.053
2024-05-09T13:23:28.058Z,25.972
2024-05-09T13:24:27.742Z,27.107
2024-05-09T13:25:27.618Z,27.796
2024-05-09T13:26:28.270Z,25.702
2024-05-09T13:27:27.941Z,26.223
2024-05-09T13:28:28.500Z,26.573
2024-05-09T13:29:27.416Z,25.871
2024-05-09T13:30:42.911Z,24.837
2024-05-09T13:31:28.164Z,24.145
2024-05-09T13:32:28.300Z,23.852
2024-05-09T13:33:27.974Z,24.231
2024-05-09T13:34:28.554Z,24.471
2024-05-09T13:35:27.384Z,24.223
2024-05-09T13:36:28.172Z,23.777
2024-05-09T13:37:28.268Z,24.023
2024-05-09T13:38:28.785Z,23.547
2024-05-09T13:39:27.456Z,23.927
2024-05-09T13:40:38.311Z,23.996
2024-05-09T13:42:27.509Z,24.340
2024-05-09T13:43:28.782Z,25.497
2024-05-09T13:44:27.635Z,24.698
2024-05-09T13:45:27.647Z,24.704
2024-05-09T13:46:28.270Z,25.729
2024-05-09T13:47:28.607Z,26.292
2024-05-09T13:48:28.030Z,26.215
2024-05-09T13:49:28.631Z,25.630
2024-05-09T13:50:37.584Z,25.959
2024-05-09T13:52:28.558Z,25.812
2024-05-09T13:53:28.234Z,25.785
2024-05-09T13:54:31.612Z,26.154
2024-05-09T13:55:27.499Z,25.772
2024-05-09T13:56:28.190Z,26.116
2024-05-09T13:57:27.852Z,26.095